createdAt,value
2022-09-12T00:00:20.984Z,56.56
2022-09-12T00:01:21.047Z,54.03
2022-09-12T00:02:21.023Z,57.42
2022-09-12T00:03:21.006Z,54.62
2022-09-12T00:04:20.956Z,53.54
2022-09-12T00:05:20.904Z,54.19
2022-09-12T00:06:23.113Z,54.02
2022-09-12T00:07:21.979Z,52.25
2022-09-12T00:08:20.914Z,54.30
2022-09-12T00:09:20.908Z,53.31
2022-09-12T00:10:21.007Z,55.05
2022-09-12T00:11:20.924Z,53.85
2022-09-12T00:12:20.929Z,56.10
2022-09-12T00:13:20.884Z,56.32
2022-09-12T00:14:20.933Z,53.94
2022-09-12T00:15:20.915Z,56.66
2022-09-12T00:16:20.994Z,59.16
2022-09-12T00:17:20.819Z,55.30
2022-09-12T00:18:20.722Z,55.79
2022-09-12T00:19:20.827Z,55.84
2022-09-12T00:20:20.834Z,56.66
2022-09-12T00:21:20.703Z,55.55
2022-09-12T00:22:20.695Z,57.12
2022-09-12T00:23:20.695Z,55.31
2022-09-12T00:24:21.137Z,58.76
2022-09-12T00:25:20.709Z,57.53
2022-09-12T00:26:20.733Z,57.33
2022-09-12T00:27:20.812Z,54.85
2022-09-12T00:28:20.783Z,56.18
2022-09-12T00:29:20.765Z,55.47
2022-09-12T00:30:20.741Z,55.13
2022-09-12T00:31:20.806Z,58.81
2022-09-12T00:32:20.728Z,58.01
2022-09-12T00:33:20.731Z,58.77
2022-09-12T00:34:20.757Z,56.56
2022-09-12T00:35:20.716Z,56.28
2022-09-12T00:36:20.727Z,58.68
2022-09-12T00:37:20.745Z,56.99
2022-09-12T00:38:20.697Z,58.70
2022-09-12T00:39:20.732Z,57.45
2022-09-12T00:40:20.624Z,57.42
2022-09-12T00:41:20.645Z,58.90
2022-09-12T00:42:20.687Z,57.84
2022-09-12T00:43:20.648Z,56.00
2022-09-12T00:44:20.594Z,57.24
2022-09-12T00:45:20.573Z,57.86
2022-09-12T00:46:20.507Z,55.49
2022-09-12T00:47:20.619Z,55.95
2022-09-12T00:48:20.603Z,56.01
2022-09-12T00:49:20.667Z,55.98
2022-09-12T00:50:21.512Z,58.37
2022-09-12T00:51:20.483Z,55.65
2022-09-12T00:52:20.546Z,56.60
2022-09-12T00:53:20.652Z,58.54
2022-09-12T00:54:20.545Z,57.00
2022-09-12T00:55:20.598Z,56.24
2022-09-12T00:56:20.542Z,58.98
2022-09-12T00:57:20.512Z,58.72
2022-09-12T00:58:20.561Z,59.49
2022-09-12T00:59:20.472Z,59.18
2022-09-12T01:00:20.629Z,56.93
2022-09-12T01:01:20.586Z,56.76
2022-09-12T01:02:20.518Z,56.36
2022-09-12T01:03:20.467Z,56.57
2022-09-12T01:04:20.533Z,56.17
2022-09-12T01:05:20.469Z,56.42
2022-09-12T01:06:20.533Z,58.61
2022-09-12T01:07:20.494Z,57.22
2022-09-12T01:08:20.469Z,58.65
2022-09-12T01:09:20.410Z,57.78
2022-09-12T01:10:20.367Z,57.26
2022-09-12T01:11:20.477Z,56.78
2022-09-12T01:12:20.501Z,57.47
2022-09-12T01:13:20.328Z,58.72
2022-09-12T01:14:20.352Z,56.32
2022-09-12T01:15:20.337Z,56.97
2022-09-12T01:16:20.359Z,57.48
2022-09-12T01:17:20.550Z,55.03
2022-09-12T01:18:20.376Z,57.10
2022-09-12T01:19:20.396Z,56.40
2022-09-12T01:20:20.412Z,59.07
2022-09-12T01:21:20.562Z,57.75
2022-09-12T01:22:20.386Z,57.56
2022-09-12T01:23:20.411Z,56.64
2022-09-12T01:24:20.416Z,59.29
2022-09-12T01:25:20.374Z,59.23
2022-09-12T01:26:20.329Z,57.72
2022-09-12T01:27:20.300Z,58.54
2022-09-12T01:28:20.603Z,55.38
2022-09-12T01:29:20.327Z,57.39
2022-09-12T01:30:20.263Z,58.19
2022-09-12T01:31:20.323Z,58.06
2022-09-12T01:32:20.281Z,58.32
2022-09-12T01:33:20.226Z,61.13
2022-09-12T01:34:20.227Z,57.59
2022-09-12T01:35:20.228Z,58.34
2022-09-12T01:36:20.164Z,60.26
2022-09-12T01:37:20.187Z,59.13
2022-09-12T01:38:20.164Z,59.79
2022-09-12T01:39:20.190Z,56.90
2022-09-12T01:40:20.138Z,56.53
2022-09-12T01:41:20.141Z,58.62
2022-09-12T01:42:20.100Z,54.40
2022-09-12T01:43:20.146Z,54.18
2022-09-12T01:44:20.136Z,58.43
2022-09-12T01:45:20.434Z,60.49
2022-09-12T01:46:20.199Z,59.15
2022-09-12T01:47:20.168Z,59.59
2022-09-12T01:48:20.267Z,60.63
2022-09-12T01:49:20.199Z,60.43
2022-09-12T01:50:20.155Z,59.83
2022-09-12T01:51:20.184Z,59.91
2022-09-12T01:52:20.193Z,59.40
2022-09-12T01:53:20.180Z,59.19
2022-09-12T01:54:20.101Z,57.93
2022-09-12T01:55:20.162Z,57.48
2022-09-12T01:56:20.097Z,55.16
2022-09-12T01:57:20.093Z,55.11
2022-09-12T01:58:20.111Z,55.10
2022-09-12T01:59:20.025Z,56.06
2022-09-12T02:00:20.105Z,56.77
2022-09-12T02:01:20.033Z,54.29
2022-09-12T02:02:21.036Z,56.72
2022-09-12T02:03:20.058Z,55.41
2022-09-12T02:04:20.701Z,56.26
2022-09-12T02:05:19.986Z,54.76
2022-09-12T02:06:20.041Z,55.06
2022-09-12T02:07:20.086Z,56.31
2022-09-12T02:08:19.985Z,55.79
2022-09-12T02:09:20.073Z,57.22
2022-09-12T02:10:20.042Z,56.19
2022-09-12T02:11:20.039Z,58.64
2022-09-12T02:12:20.032Z,57.61
2022-09-12T02:13:19.982Z,56.56
2022-09-12T02:14:20.007Z,56.21
2022-09-12T02:15:19.999Z,59.48
2022-09-12T02:16:20.073Z,56.50
2022-09-12T02:17:20.036Z,55.89
2022-09-12T02:18:19.982Z,57.31
2022-09-12T02:19:19.945Z,56.39
2022-09-12T02:20:37.506Z,57.44
2022-09-12T02:21:21.947Z,57.49
2022-09-12T02:22:19.920Z,59.25
2022-09-12T02:23:19.904Z,56.77
2022-09-12T02:24:19.910Z,56.12
2022-09-12T02:25:19.883Z,57.54
2022-09-12T02:26:19.862Z,58.35
2022-09-12T02:27:19.810Z,57.67
2022-09-12T02:28:19.848Z,57.39
2022-09-12T02:29:19.880Z,58.21
2022-09-12T02:30:19.794Z,59.17
2022-09-12T02:31:19.772Z,57.59
2022-09-12T02:32:19.869Z,59.24
2022-09-12T02:33:19.780Z,60.10
2022-09-12T02:34:19.791Z,58.94
2022-09-12T02:35:19.862Z,59.17
2022-09-12T02:36:19.826Z,59.60
2022-09-12T02:37:19.884Z,56.38
2022-09-12T02:38:19.824Z,55.37
2022-09-12T02:39:20.122Z,53.96
2022-09-12T02:40:19.867Z,55.07
2022-09-12T02:41:19.787Z,57.07
2022-09-12T02:42:19.903Z,57.37
2022-09-12T02:43:19.800Z,57.32
2022-09-12T02:44:19.840Z,58.69
2022-09-12T02:45:20.501Z,57.18
2022-09-12T02:46:19.779Z,57.19
2022-09-12T02:47:19.767Z,56.57
2022-09-12T02:48:19.780Z,57.41
2022-09-12T02:49:19.755Z,57.69
2022-09-12T02:50:19.767Z,57.67
2022-09-12T02:51:23.520Z,57.14
2022-09-12T02:52:20.652Z,58.04
2022-09-12T02:53:19.705Z,58.06
2022-09-12T02:54:19.656Z,57.51
2022-09-12T02:55:19.710Z,59.08
2022-09-12T02:56:19.742Z,58.09
2022-09-12T02:57:22.778Z,58.83
2022-09-12T02:58:20.689Z,59.63
2022-09-12T02:59:19.674Z,59.40
2022-09-12T03:00:19.695Z,57.32
2022-09-12T03:01:19.758Z,56.86
2022-09-12T03:02:19.887Z,56.57
2022-09-12T03:03:19.671Z,55.83
2022-09-12T03:04:19.697Z,54.25
2022-09-12T03:05:19.663Z,54.60
2022-09-12T03:06:19.822Z,55.95
2022-09-12T03:07:19.588Z,56.86
2022-09-12T03:08:19.668Z,55.94
2022-09-12T03:09:19.663Z,54.98
2022-09-12T03:10:19.646Z,57.40
2022-09-12T03:11:19.655Z,56.29
2022-09-12T03:12:19.603Z,55.31
2022-09-12T03:13:19.611Z,57.28
2022-09-12T03:14:19.504Z,56.09
2022-09-12T03:15:19.534Z,56.00
2022-09-12T03:16:19.699Z,55.43
2022-09-12T03:17:19.486Z,57.01
2022-09-12T03:18:19.511Z,56.74
2022-09-12T03:19:19.452Z,56.14
2022-09-12T03:20:19.489Z,55.73
2022-09-12T03:21:19.480Z,55.31
2022-09-12T03:22:19.487Z,58.68
2022-09-12T03:23:19.508Z,57.63
2022-09-12T03:24:19.529Z,56.61
2022-09-12T03:25:19.629Z,56.85
2022-09-12T03:26:19.547Z,57.35
2022-09-12T03:27:19.518Z,57.50
2022-09-12T03:28:19.492Z,58.20
2022-09-12T03:29:19.455Z,56.91
2022-09-12T03:30:19.471Z,57.20
2022-09-12T03:31:19.513Z,57.54
2022-09-12T03:32:19.433Z,59.35
2022-09-12T03:33:19.511Z,58.65
2022-09-12T03:34:20.299Z,59.25
2022-09-12T03:35:26.031Z,57.72
2022-09-12T03:36:20.698Z,57.09
2022-09-12T03:37:19.413Z,58.62
2022-09-12T03:38:19.329Z,58.12
2022-09-12T03:39:19.345Z,56.72
2022-09-12T03:40:19.384Z,58.12
2022-09-12T03:41:19.481Z,59.18
2022-09-12T03:42:19.333Z,57.19
2022-09-12T03:43:19.336Z,58.37
2022-09-12T03:44:19.256Z,59.70
2022-09-12T03:45:19.352Z,58.87
2022-09-12T03:46:19.366Z,58.47
2022-09-12T03:47:19.392Z,59.82
2022-09-12T03:48:19.390Z,58.44
2022-09-12T03:49:19.339Z,57.56
2022-09-12T03:50:19.371Z,59.00
2022-09-12T03:51:19.350Z,58.77
2022-09-12T03:52:19.373Z,58.11
2022-09-12T03:53:19.346Z,59.24
2022-09-12T03:54:19.277Z,59.66
2022-09-12T03:55:19.321Z,58.87
2022-09-12T03:56:19.378Z,59.51
2022-09-12T03:57:19.331Z,60.04
2022-09-12T03:58:19.258Z,59.65
2022-09-12T03:59:19.223Z,60.10
2022-09-12T04:00:20.045Z,58.87
2022-09-12T04:01:20.276Z,57.82
2022-09-12T04:02:19.343Z,57.66
2022-09-12T04:03:19.329Z,56.61
2022-09-12T04:04:19.307Z,59.55
2022-09-12T04:05:19.822Z,58.51
2022-09-12T04:06:19.304Z,58.34
2022-09-12T04:07:19.187Z,57.81
2022-09-12T04:08:19.255Z,59.88
2022-09-12T04:09:20.057Z,59.14
2022-09-12T04:10:19.177Z,59.01
2022-09-12T04:11:19.255Z,59.85
2022-09-12T04:12:19.193Z,60.46
2022-09-12T04:13:19.207Z,60.35
2022-09-12T04:14:19.125Z,58.88
2022-09-12T04:15:19.179Z,60.50
2022-09-12T04:16:19.223Z,58.02
2022-09-12T04:17:19.144Z,60.12
2022-09-12T04:18:19.189Z,59.09
2022-09-12T04:19:19.104Z,59.68
2022-09-12T04:20:19.031Z,59.11
2022-09-12T04:21:19.060Z,57.49
2022-09-12T04:22:19.027Z,59.20
2022-09-12T04:23:19.052Z,60.23
2022-09-12T04:24:19.035Z,59.07
2022-09-12T04:25:18.959Z,60.28
2022-09-12T04:26:18.980Z,60.29
2022-09-12T04:27:18.983Z,58.60
2022-09-12T04:28:19.017Z,58.95
2022-09-12T04:29:18.983Z,59.28
2022-09-12T04:30:19.034Z,59.73
2022-09-12T04:31:19.013Z,58.21
2022-09-12T04:32:19.047Z,64.21
2022-09-12T04:33:19.036Z,60.69
2022-09-12T04:34:19.029Z,58.89
2022-09-12T04:35:19.018Z,58.24
2022-09-12T04:36:18.995Z,59.50
2022-09-12T04:37:18.986Z,59.59
2022-09-12T04:38:19.308Z,60.63
2022-09-12T04:39:18.960Z,59.08
2022-09-12T04:40:19.034Z,60.24
2022-09-12T04:41:18.946Z,58.63
2022-09-12T04:42:18.949Z,59.01
2022-09-12T04:43:18.990Z,58.46
2022-09-12T04:44:18.935Z,59.43
2022-09-12T04:45:18.863Z,60.10
2022-09-12T04:46:18.829Z,59.33
2022-09-12T04:47:18.802Z,58.52
2022-09-12T04:48:19.049Z,58.85
2022-09-12T04:49:18.836Z,60.29
2022-09-12T04:50:18.911Z,60.35
2022-09-12T04:51:18.889Z,59.72
2022-09-12T04:52:19.532Z,59.58
2022-09-12T04:53:18.805Z,60.07
2022-09-12T04:54:18.911Z,60.19
2022-09-12T04:55:18.865Z,61.13
2022-09-12T04:56:18.858Z,62.58
2022-09-12T04:57:18.820Z,60.04
2022-09-12T04:58:18.870Z,60.47
2022-09-12T04:59:22.865Z,62.64
2022-09-12T05:00:18.824Z,60.93
2022-09-12T05:01:18.866Z,60.24
2022-09-12T05:02:18.823Z,61.89
2022-09-12T05:03:18.821Z,59.72
2022-09-12T05:04:18.815Z,60.72
2022-09-12T05:05:18.809Z,60.50
2022-09-12T05:06:18.824Z,61.47
2022-09-12T05:07:18.790Z,60.53
2022-09-12T05:08:18.763Z,59.17
2022-09-12T05:09:18.796Z,60.35
2022-09-12T05:10:18.799Z,58.77
2022-09-12T05:11:22.737Z,59.62
2022-09-12T05:12:20.775Z,61.05
2022-09-12T05:13:18.673Z,61.88
2022-09-12T05:14:18.632Z,60.86
2022-09-12T05:15:18.697Z,59.65
2022-09-12T05:16:18.785Z,60.13
2022-09-12T05:17:18.706Z,60.22
2022-09-12T05:18:18.704Z,60.05
2022-09-12T05:19:18.613Z,59.28
2022-09-12T05:20:18.656Z,59.18
2022-09-12T05:21:18.740Z,61.38
2022-09-12T05:22:18.677Z,61.32
2022-09-12T05:23:18.666Z,61.87
2022-09-12T05:24:18.683Z,61.38
2022-09-12T05:25:18.640Z,62.10
2022-09-12T05:26:18.713Z,62.96
2022-09-12T05:27:18.646Z,62.19
2022-09-12T05:28:18.656Z,60.99
2022-09-12T05:29:18.610Z,62.25
2022-09-12T05:30:18.672Z,62.61
2022-09-12T05:31:18.651Z,62.08
2022-09-12T05:32:18.682Z,62.55
2022-09-12T05:33:20.971Z,62.16
2022-09-12T05:34:20.513Z,61.84
2022-09-12T05:35:18.498Z,60.56
2022-09-12T05:36:18.735Z,61.09
2022-09-12T05:37:18.649Z,61.87
2022-09-12T05:38:18.655Z,60.94
2022-09-12T05:39:18.588Z,61.23
2022-09-12T05:40:18.614Z,60.53
2022-09-12T05:41:23.019Z,61.24
2022-09-12T05:42:20.823Z,60.52
2022-09-12T05:43:18.525Z,60.12
2022-09-12T05:44:18.561Z,62.92
2022-09-12T05:45:18.577Z,61.93
2022-09-12T05:46:18.619Z,61.45
2022-09-12T05:47:18.540Z,60.73
2022-09-12T05:48:18.547Z,61.65
2022-09-12T05:49:18.494Z,62.83
2022-09-12T05:50:18.376Z,62.61
2022-09-12T05:51:18.396Z,62.22
2022-09-12T05:52:18.386Z,61.91
2022-09-12T05:53:18.434Z,61.65
2022-09-12T05:54:18.800Z,62.21
2022-09-12T05:55:18.371Z,61.56
2022-09-12T05:56:18.434Z,61.64
2022-09-12T05:57:18.448Z,63.21
2022-09-12T05:58:18.509Z,62.51
2022-09-12T05:59:19.459Z,60.35
2022-09-12T06:00:18.431Z,62.12
2022-09-12T06:01:18.546Z,60.37
2022-09-12T06:02:18.847Z,59.29
2022-09-12T06:03:18.446Z,58.71
2022-09-12T06:04:18.433Z,61.23
2022-09-12T06:05:18.368Z,60.73
2022-09-12T06:06:18.466Z,59.63
2022-09-12T06:07:18.375Z,58.01
2022-09-12T06:08:18.286Z,58.67
2022-09-12T06:09:18.397Z,58.60
2022-09-12T06:10:18.383Z,60.02
2022-09-12T06:11:18.336Z,60.03
2022-09-12T06:12:18.413Z,59.72
2022-09-12T06:13:18.236Z,57.85
2022-09-12T06:14:18.229Z,58.34
2022-09-12T06:15:18.243Z,56.56
2022-09-12T06:16:18.338Z,59.18
2022-09-12T06:17:18.201Z,60.83
2022-09-12T06:18:18.294Z,60.87
2022-09-12T06:19:18.350Z,60.96
2022-09-12T06:20:18.337Z,58.92
2022-09-12T06:21:29.204Z,62.30
2022-09-12T06:22:19.192Z,61.34
2022-09-12T06:23:18.269Z,61.39
2022-09-12T06:24:18.322Z,58.95
2022-09-12T06:25:18.257Z,59.62
2022-09-12T06:26:18.345Z,59.82
2022-09-12T06:27:18.255Z,59.73
2022-09-12T06:28:18.189Z,59.14
2022-09-12T06:29:18.246Z,59.16
2022-09-12T06:30:20.363Z,61.03
2022-09-12T06:31:19.217Z,59.78
2022-09-12T06:32:18.171Z,60.26
2022-09-12T06:33:18.095Z,60.06
2022-09-12T06:34:18.142Z,59.58
2022-09-12T06:35:18.093Z,61.12
2022-09-12T06:36:18.071Z,60.63
2022-09-12T06:37:18.068Z,60.32
2022-09-12T06:38:18.063Z,58.86
2022-09-12T06:39:18.094Z,61.78
2022-09-12T06:40:18.070Z,59.32
2022-09-12T06:41:18.065Z,60.09
2022-09-12T06:42:18.071Z,60.75
2022-09-12T06:43:18.133Z,61.18
2022-09-12T06:44:18.453Z,63.05
2022-09-12T06:45:18.182Z,60.12
2022-09-12T06:46:18.223Z,60.18
2022-09-12T06:47:18.170Z,59.26
2022-09-12T06:48:18.091Z,61.51
2022-09-12T06:49:18.180Z,60.12
2022-09-12T06:50:18.141Z,60.07
2022-09-12T06:51:18.110Z,59.03
2022-09-12T06:52:18.074Z,59.52
2022-09-12T06:53:18.064Z,58.50
2022-09-12T06:54:18.047Z,59.60
2022-09-12T06:55:20.950Z,58.85
2022-09-12T06:56:19.072Z,59.18
2022-09-12T06:57:17.994Z,59.86
2022-09-12T06:58:18.038Z,59.02
2022-09-12T06:59:18.011Z,59.92
2022-09-12T07:00:17.941Z,60.07
2022-09-12T07:01:18.116Z,60.13
2022-09-12T07:02:17.948Z,61.38
2022-09-12T07:03:18.016Z,59.92
2022-09-12T07:04:17.908Z,60.04
2022-09-12T07:05:17.981Z,59.82
2022-09-12T07:06:18.065Z,59.70
2022-09-12T07:07:17.978Z,59.34
2022-09-12T07:08:17.988Z,59.52
2022-09-12T07:09:17.967Z,58.23
2022-09-12T07:10:22.098Z,58.94
2022-09-12T07:11:18.980Z,59.96
2022-09-12T07:12:18.025Z,60.34
2022-09-12T07:13:17.951Z,59.33
2022-09-12T07:14:17.935Z,59.39
2022-09-12T07:15:17.904Z,58.04
2022-09-12T07:16:19.693Z,58.55
2022-09-12T07:17:18.923Z,59.63
2022-09-12T07:18:17.922Z,61.34
2022-09-12T08:37:27.384Z,58.80
2022-09-12T08:38:28.565Z,59.87
2022-09-12T08:39:28.525Z,55.04
2022-09-12T08:40:28.539Z,54.70
2022-09-12T08:41:28.628Z,57.71
2022-09-12T08:42:28.565Z,57.96
2022-09-12T08:43:28.520Z,56.74
2022-09-12T08:44:28.412Z,58.84
2022-09-12T08:45:28.423Z,58.56
2022-09-12T08:46:28.550Z,59.90
2022-09-12T08:47:28.465Z,56.92
2022-09-12T08:48:28.417Z,55.27
2022-09-12T08:49:28.422Z,57.49
2022-09-12T08:50:28.368Z,55.68
2022-09-12T08:51:28.355Z,54.08
2022-09-12T08:52:28.409Z,56.32
2022-09-12T08:53:28.339Z,54.60
2022-09-12T08:54:28.434Z,54.63
2022-09-12T08:55:29.220Z,57.22
2022-09-12T08:56:31.551Z,56.83
2022-09-12T08:57:29.481Z,58.23
2022-09-12T08:58:28.448Z,55.54
2022-09-12T08:59:28.438Z,55.04
2022-09-12T09:00:28.432Z,58.87
2022-09-12T09:01:28.461Z,56.33
2022-09-12T09:02:28.457Z,56.74
2022-09-12T09:03:28.450Z,54.84
2022-09-12T09:04:29.036Z,58.63
2022-09-12T09:05:29.433Z,58.40
2022-09-12T09:06:28.375Z,56.61
2022-09-12T09:07:28.466Z,56.66
2022-09-12T09:08:28.428Z,57.97
2022-09-12T09:09:29.326Z,56.41
2022-09-12T09:10:28.231Z,57.29
2022-09-12T09:11:28.247Z,59.15
2022-09-12T09:12:28.351Z,57.68
2022-09-12T09:13:28.220Z,57.93
2022-09-12T09:14:28.290Z,56.38
2022-09-12T09:15:28.284Z,56.24
2022-09-12T09:16:28.217Z,56.36
2022-09-12T09:17:28.181Z,56.65
2022-09-12T09:18:28.303Z,58.64
2022-09-12T09:19:28.309Z,58.35
2022-09-12T09:20:28.359Z,56.54
2022-09-12T09:21:28.249Z,57.56
2022-09-12T09:22:28.271Z,57.65
2022-09-12T09:23:28.296Z,57.55
2022-09-12T09:24:28.265Z,57.27
2022-09-12T09:25:28.258Z,56.69
2022-09-12T09:26:28.249Z,58.01
2022-09-12T09:27:41.961Z,55.91
2022-09-12T09:28:30.155Z,55.60
2022-09-12T09:29:28.228Z,53.26
2022-09-12T09:30:28.334Z,56.51
2022-09-12T09:31:28.299Z,54.65
2022-09-12T09:32:28.270Z,56.37
2022-09-12T09:33:28.214Z,55.15
2022-09-12T09:34:28.232Z,57.56
2022-09-12T09:35:28.068Z,55.82
2022-09-12T09:36:28.092Z,55.89
2022-09-12T09:37:28.040Z,58.60
2022-09-12T09:38:28.048Z,59.34
2022-09-12T09:39:28.048Z,56.99
2022-09-12T09:40:28.027Z,58.20
2022-09-12T09:41:28.057Z,58.14
2022-09-12T09:42:28.016Z,56.46
2022-09-12T09:43:28.006Z,54.04
2022-09-12T09:44:28.011Z,58.01
2022-09-12T09:45:28.011Z,57.53
2022-09-12T09:46:28.171Z,58.93
2022-09-12T09:47:28.125Z,58.49
2022-09-12T09:48:28.106Z,56.18
2022-09-12T09:49:28.075Z,58.78
2022-09-12T09:50:28.085Z,58.55
2022-09-12T09:51:28.065Z,59.07
2022-09-12T09:52:28.198Z,58.41
2022-09-12T09:53:28.117Z,57.88
2022-09-12T09:54:28.008Z,57.83
2022-09-12T09:55:28.143Z,59.31
2022-09-12T09:56:28.030Z,56.17
2022-09-12T09:57:28.149Z,54.58
2022-09-12T09:58:28.016Z,57.35
2022-09-12T09:59:27.923Z,58.90
2022-09-12T10:00:27.875Z,56.25
2022-09-12T10:01:27.947Z,58.00
2022-09-12T10:02:28.032Z,58.19
2022-09-12T10:03:27.922Z,56.07
2022-09-12T10:04:27.862Z,57.66
2022-09-12T10:05:27.987Z,57.29
2022-09-12T10:06:27.994Z,54.77
2022-09-12T10:07:27.976Z,56.53
2022-09-12T10:08:27.961Z,58.16
2022-09-12T10:09:27.950Z,55.66
2022-09-12T10:10:27.927Z,56.82
2022-09-12T10:11:27.950Z,57.64
2022-09-12T10:12:27.934Z,56.46
2022-09-12T10:13:27.909Z,54.81
2022-09-12T10:14:27.984Z,56.23
2022-09-12T10:15:27.904Z,57.15
2022-09-12T10:16:27.912Z,58.16
2022-09-12T10:17:31.738Z,59.36
2022-09-12T10:18:28.810Z,56.45
2022-09-12T10:19:27.773Z,56.98
2022-09-12T10:20:27.743Z,57.93
2022-09-12T10:21:27.721Z,56.42
2022-09-12T10:22:27.740Z,65.56
2022-09-12T10:23:27.720Z,57.52
2022-09-12T10:24:27.721Z,57.98
2022-09-12T10:25:27.753Z,56.08
2022-09-12T10:26:27.714Z,55.68
2022-09-12T10:27:28.172Z,56.73
2022-09-12T10:28:27.803Z,57.28
2022-09-12T10:29:27.792Z,55.81
2022-09-12T10:30:27.860Z,57.40
2022-09-12T10:31:27.790Z,56.86
2022-09-12T10:32:30.885Z,55.76
2022-09-12T10:33:28.878Z,54.24
2022-09-12T10:34:27.744Z,57.05
2022-09-12T10:35:27.778Z,54.16
2022-09-12T10:36:27.814Z,56.62
2022-09-12T10:37:27.744Z,56.68
2022-09-12T10:38:27.744Z,56.03
2022-09-12T10:39:27.815Z,54.00
2022-09-12T10:40:27.710Z,59.55
2022-09-12T10:41:27.728Z,54.56
2022-09-12T10:42:27.692Z,58.32
2022-09-12T10:43:27.711Z,55.76
2022-09-12T10:44:27.671Z,51.59
2022-09-12T10:45:27.669Z,53.68
2022-09-12T10:46:27.563Z,52.63
2022-09-12T10:47:27.581Z,52.19
2022-09-12T10:48:27.534Z,56.47
2022-09-12T10:49:27.522Z,55.49
2022-09-12T10:50:27.540Z,53.11
2022-09-12T10:51:27.518Z,55.37
2022-09-12T10:52:27.877Z,53.61
2022-09-12T10:53:30.994Z,52.86
2022-09-12T10:54:29.532Z,52.86
2022-09-12T10:55:27.487Z,53.43
2022-09-12T10:56:27.609Z,52.57
2022-09-12T10:57:27.601Z,53.91
2022-09-12T10:58:27.673Z,52.93
2022-09-12T10:59:27.577Z,55.40
2022-09-12T11:00:27.663Z,53.13
2022-09-12T11:01:27.618Z,53.29
2022-09-12T11:02:27.629Z,56.51
2022-09-12T11:03:27.624Z,56.30
2022-09-12T11:04:27.546Z,54.32
2022-09-12T11:05:27.566Z,54.75
2022-09-12T11:06:27.528Z,55.39
2022-09-12T11:07:27.538Z,54.82
2022-09-12T11:08:27.495Z,51.45
2022-09-12T11:09:27.569Z,52.21
2022-09-12T11:10:27.485Z,56.16
2022-09-12T11:11:27.353Z,51.73
2022-09-12T11:12:27.382Z,51.96
2022-09-12T11:13:27.489Z,52.99
2022-09-12T11:14:27.414Z,51.51
2022-09-12T11:15:27.441Z,53.75
2022-09-12T11:16:27.435Z,53.33
2022-09-12T11:17:27.513Z,51.21
2022-09-12T11:18:27.420Z,52.89
2022-09-12T11:19:27.545Z,51.77
2022-09-12T11:20:27.408Z,54.70
2022-09-12T11:21:27.450Z,51.64
2022-09-12T11:22:31.533Z,54.26
2022-09-12T11:23:28.442Z,52.77
2022-09-12T11:24:27.374Z,51.88
2022-09-12T11:25:27.712Z,55.27
2022-09-12T11:26:28.377Z,55.60
2022-09-12T11:27:27.390Z,60.62
2022-09-12T11:28:27.372Z,52.54
2022-09-12T11:29:27.210Z,54.52
2022-09-12T11:30:27.251Z,53.19
2022-09-12T11:31:27.238Z,51.79
2022-09-12T11:32:27.411Z,53.71
2022-09-12T11:33:27.309Z,52.76
2022-09-12T11:34:27.285Z,52.38
2022-09-12T11:35:27.341Z,50.32
2022-09-12T11:36:27.274Z,51.07
2022-09-12T11:37:27.297Z,52.14
2022-09-12T11:38:27.304Z,51.63
2022-09-12T11:39:27.328Z,53.87
2022-09-12T11:40:27.389Z,52.67
2022-09-12T11:41:27.262Z,51.93
2022-09-12T11:42:27.299Z,52.28
2022-09-12T11:43:27.255Z,55.85
2022-09-12T11:44:27.323Z,52.22
2022-09-12T11:45:27.239Z,51.70
2022-09-12T11:46:27.375Z,52.13
2022-09-12T11:47:27.235Z,50.13
2022-09-12T11:48:27.221Z,52.81
2022-09-12T11:49:27.262Z,52.57
2022-09-12T11:50:27.187Z,50.76
2022-09-12T11:51:27.248Z,55.62
2022-09-12T11:52:27.077Z,50.65
2022-09-12T11:53:27.050Z,48.97
2022-09-12T11:54:27.045Z,51.17
2022-09-12T11:55:27.055Z,52.35
2022-09-12T11:56:27.031Z,52.76
2022-09-12T11:57:27.488Z,53.52
2022-09-12T11:58:27.043Z,53.10
2022-09-12T11:59:27.053Z,53.78
2022-09-12T12:00:26.997Z,50.72
2022-09-12T12:01:27.038Z,53.23
2022-09-12T12:02:27.083Z,51.65
2022-09-12T12:03:27.185Z,53.93
2022-09-12T12:04:27.080Z,51.70
2022-09-12T12:05:27.136Z,57.98
2022-09-12T12:06:27.075Z,55.85
2022-09-12T12:07:27.100Z,54.86
2022-09-12T12:08:27.069Z,53.59
2022-09-12T12:09:27.077Z,52.43
2022-09-12T12:10:27.053Z,58.36
2022-09-12T12:11:27.033Z,51.37
2022-09-12T12:12:27.049Z,49.93
2022-09-12T12:13:27.034Z,53.69
2022-09-12T12:14:27.040Z,51.69
2022-09-12T12:15:27.029Z,50.53
2022-09-12T12:16:26.998Z,54.30
2022-09-12T12:17:27.030Z,52.00
2022-09-12T12:18:27.035Z,52.10
2022-09-12T12:19:26.859Z,65.46
2022-09-12T12:20:26.904Z,52.82
2022-09-12T12:21:26.878Z,58.76
2022-09-12T12:22:26.986Z,57.93
2022-09-12T12:23:26.865Z,55.09
2022-09-12T12:24:26.847Z,52.35
2022-09-12T12:25:29.882Z,53.96
2022-09-12T12:26:27.817Z,52.06
2022-09-12T12:27:26.783Z,52.43
2022-09-12T12:28:26.968Z,61.08
2022-09-12T12:29:26.964Z,52.55
2022-09-12T12:30:26.878Z,52.46
2022-09-12T12:31:26.930Z,52.27
2022-09-12T12:32:26.836Z,53.05
2022-09-12T12:33:26.848Z,52.86
2022-09-12T12:34:26.886Z,53.10
2022-09-12T12:35:26.906Z,52.70
2022-09-12T12:36:26.884Z,53.01
2022-09-12T12:37:26.844Z,50.47
2022-09-12T12:38:26.821Z,48.71
2022-09-12T12:39:26.829Z,52.54
2022-09-12T12:40:26.845Z,51.32
2022-09-12T12:41:26.789Z,52.06
2022-09-12T12:42:26.793Z,54.03
2022-09-12T12:43:26.798Z,55.12
2022-09-12T12:44:26.761Z,53.29
2022-09-12T12:45:26.798Z,52.06
2022-09-12T12:46:26.856Z,52.95
2022-09-12T12:47:26.676Z,53.79
2022-09-12T12:48:26.671Z,51.80
2022-09-12T12:49:26.646Z,52.63
2022-09-12T12:50:26.762Z,50.98
2022-09-12T12:51:26.704Z,51.40
2022-09-12T12:52:26.647Z,51.59
2022-09-12T12:53:26.656Z,51.34
2022-09-12T12:54:26.689Z,52.19
2022-09-12T12:55:26.666Z,51.20
2022-09-12T12:56:26.669Z,52.94
2022-09-12T12:57:26.781Z,49.67
2022-09-12T12:58:26.701Z,51.16
2022-09-12T12:59:26.645Z,52.60
2022-09-12T13:00:26.688Z,51.43
2022-09-12T13:01:26.737Z,55.22
2022-09-12T13:02:27.204Z,52.83
2022-09-12T13:03:26.681Z,53.60
2022-09-12T13:04:26.668Z,50.41
2022-09-12T13:05:26.622Z,49.26
2022-09-12T13:06:26.665Z,49.35
2022-09-12T13:07:26.587Z,51.78
2022-09-12T13:08:32.361Z,49.38
2022-09-12T13:09:27.610Z,49.98
2022-09-12T13:10:26.635Z,49.25
2022-09-12T13:11:26.457Z,50.04
2022-09-12T13:12:26.481Z,47.97
2022-09-12T13:13:26.501Z,54.90
2022-09-12T13:14:26.610Z,52.42
2022-09-12T13:15:26.614Z,49.08
2022-09-12T13:16:26.550Z,50.72
2022-09-12T13:17:26.545Z,49.52
2022-09-12T13:18:26.582Z,48.36
2022-09-12T13:19:26.549Z,50.47
2022-09-12T13:20:29.071Z,52.10
2022-09-12T13:21:27.476Z,49.57
2022-09-12T13:22:26.525Z,48.54
2022-09-12T13:23:26.495Z,48.05
2022-09-12T13:24:26.575Z,55.34
2022-09-12T13:25:26.480Z,51.83
2022-09-12T13:26:26.484Z,49.01
2022-09-12T13:27:26.438Z,49.00
2022-09-12T13:28:27.522Z,47.70
2022-09-12T13:29:27.500Z,51.65
2022-09-12T13:30:26.489Z,55.18
2022-09-12T13:31:26.524Z,51.14
2022-09-12T13:32:26.496Z,50.89
2022-09-12T13:33:26.545Z,48.16
2022-09-12T13:34:26.317Z,50.83
2022-09-12T13:35:26.348Z,51.39
2022-09-12T13:36:26.294Z,46.84
2022-09-12T13:37:26.420Z,47.42
2022-09-12T13:38:26.311Z,48.35
2022-09-12T13:39:26.270Z,48.38
2022-09-12T13:40:26.327Z,50.53
2022-09-12T13:41:26.313Z,48.55
2022-09-12T13:42:26.295Z,46.97
2022-09-12T13:43:26.404Z,51.69
2022-09-12T13:44:26.393Z,51.91
2022-09-12T13:45:26.747Z,51.97
2022-09-12T13:46:26.402Z,47.42
2022-09-12T13:47:26.361Z,49.10
2022-09-12T13:48:26.301Z,48.01
2022-09-12T13:49:26.318Z,46.23
2022-09-12T13:50:26.323Z,45.63
2022-09-12T13:51:26.364Z,49.25
2022-09-12T13:52:26.221Z,51.28
2022-09-12T13:53:26.433Z,55.09
2022-09-12T13:54:26.321Z,54.49
2022-09-12T13:55:26.320Z,50.66
2022-09-12T13:56:26.391Z,51.00
2022-09-12T13:57:26.351Z,48.51
2022-09-12T13:58:26.178Z,48.85
2022-09-12T13:59:26.157Z,45.22
2022-09-12T14:00:26.196Z,50.46
2022-09-12T14:01:26.160Z,46.69
2022-09-12T14:02:26.189Z,51.65
2022-09-12T14:03:26.262Z,53.47
2022-09-12T14:04:26.115Z,47.45
2022-09-12T14:05:26.418Z,48.38
2022-09-12T14:06:26.200Z,47.76
2022-09-12T14:07:26.571Z,57.59
2022-09-12T14:08:26.238Z,47.61
2022-09-12T14:09:26.609Z,50.47
2022-09-12T14:10:26.185Z,47.89